Time;durP1;ratioP1;P1;durP2;ratioP2;P2;SDS_P1;SDS_P2;PMS_P1;PMS_P2;Temp;Humidity;BMP_temperature;BMP_pressure;BME280_temperature;BME280_humidity;BME280_pressure;Samples;Min_cycle;Max_cycle;Signal;HPM_P1;HPM_P2
2022/07/31 00:05:58;;;;;;;1.83;1.25;;;27.50;54.60;;;;;;10866164;32;20042;-70
2022/07/31 00:12:00;;;;;;;1.70;1.08;;;27.40;54.70;;;;;;10866004;32;20028;-70
2022/07/31 00:18:07;;;;;;;1.87;0.98;;;27.40;55.00;;;;;;10865817;32;20046;-70
2022/07/31 00:24:10;;;;;;;1.40;1.00;;;27.50;55.00;;;;;;10874421;32;20065;-70
2022/07/31 00:30:12;;;;;;;1.33;0.73;;;27.50;54.90;;;;;;10909551;32;20065;-70
2022/07/31 00:36:20;;;;;;;1.87;1.27;;;27.60;55.10;;;;;;10909627;32;20320;-70
2022/07/31 00:42:25;;;;;;;1.25;0.70;;;27.40;55.20;;;;;;10909269;32;20395;-70
2022/07/31 00:48:27;;;;;;;1.62;1.02;;;27.20;55.60;;;;;;10909009;32;20008;-70
2022/07/31 00:54:29;;;;;;;2.25;1.37;;;27.10;55.80;;;;;;10908918;32;20046;-70
2022/07/31 01:00:39;;;;;;;1.77;1.17;;;27.00;55.80;;;;;;10908622;32;20289;-70
2022/07/31 01:06:41;;;;;;;2.40;1.50;;;26.80;56.00;;;;;;10908371;32;20054;-70
2022/07/31 01:12:58;;;;;;;3.00;1.35;;;26.90;56.00;;;;;;10908310;32;20348;-70
2022/07/31 01:19:10;;;;;;;3.97;0.88;;;26.80;56.00;;;;;;10907900;32;20023;-70
2022/07/31 01:25:33;;;;;;;1.77;1.15;;;26.90;56.20;;;;;;10905127;32;20429;-70
2022/07/31 01:31:43;;;;;;;1.52;1.02;;;26.80;56.20;;;;;;10902687;32;20032;-70
2022/07/31 01:37:59;;;;;;;2.33;1.62;;;26.50;56.60;;;;;;10907315;32;20418;-70
2022/07/31 01:44:04;;;;;;;2.00;1.08;;;26.50;56.80;;;;;;10907102;32;20054;-70
2022/07/31 01:50:08;;;;;;;2.35;1.27;;;26.70;56.70;;;;;;10902701;32;20042;-70
2022/07/31 01:56:10;;;;;;;1.80;1.37;;;26.70;56.60;;;;;;10906618;32;20024;-70
2022/07/31 02:02:15;;;;;;;1.87;1.25;;;26.70;56.60;;;;;;10906411;32;20332;-70
2022/07/31 02:08:18;;;;;;;2.72;1.55;;;26.60;56.60;;;;;;10902045;32;20023;-70
2022/07/31 02:14:21;;;;;;;3.10;1.73;;;26.60;56.50;;;;;;10906134;32;20015;-72
2022/07/31 02:20:25;;;;;;;2.00;1.65;;;26.40;56.70;;;;;;10905833;32;20019;-70
2022/07/31 02:26:30;;;;;;;1.73;0.85;;;26.30;56.90;;;;;;10905587;32;20019;-70
2022/07/31 02:32:57;;;;;;;2.78;1.58;;;26.20;57.10;;;;;;10905318;32;20038;-72
2022/07/31 02:39:01;;;;;;;3.62;1.98;;;26.10;57.20;;;;;;10905189;32;20023;-70
2022/07/31 02:45:05;;;;;;;2.33;1.50;;;26.10;57.30;;;;;;10904122;32;20028;-70
2022/07/31 02:51:08;;;;;;;2.83;1.62;;;25.90;57.40;;;;;;10905047;32;20053;-70
2022/07/31 02:57:11;;;;;;;3.58;1.95;;;25.90;57.60;;;;;;10904681;32;20023;-72
2022/07/31 03:03:13;;;;;;;4.00;1.87;;;25.90;57.40;;;;;;10904435;32;20027;-72
2022/07/31 03:09:22;;;;;;;3.67;1.65;;;25.80;57.60;;;;;;10904496;32;20098;-72
2022/07/31 03:15:26;;;;;;;2.28;1.20;;;25.80;57.70;;;;;;10900128;32;20380;-72
2022/07/31 03:21:30;;;;;;;2.35;1.60;;;25.80;57.70;;;;;;10904400;32;20427;-72
2022/07/31 03:27:34;;;;;;;3.58;2.03;;;25.90;57.90;;;;;;10904214;32;20434;-72
2022/07/31 03:33:36;;;;;;;5.43;2.10;;;25.90;57.80;;;;;;10903970;32;20020;-72
2022/07/31 03:39:40;;;;;;;4.25;2.03;;;25.80;58.00;;;;;;10904035;32;20379;-71
2022/07/31 03:45:44;;;;;;;8.43;2.67;;;25.70;58.40;;;;;;10903691;32;20073;-71
2022/07/31 03:51:46;;;;;;;5.30;1.85;;;25.80;58.50;;;;;;10903730;32;20038;-71
2022/07/31 03:57:48;;;;;;;3.85;1.98;;;25.80;58.30;;;;;;10904198;32;20024;-71
2022/07/31 04:04:00;;;;;;;6.10;2.58;;;25.70;58.30;;;;;;10910459;32;20019;-71
2022/07/31 04:10:03;;;;;;;3.92;2.03;;;25.70;58.20;;;;;;10906182;32;20023;-71
2022/07/31 04:16:05;;;;;;;3.45;2.58;;;25.60;58.50;;;;;;10910162;32;20041;-72
2022/07/31 04:22:07;;;;;;;3.60;2.47;;;25.60;58.70;;;;;;10909995;32;20045;-71
2022/07/31 04:28:11;;;;;;;4.32;2.33;;;25.70;58.70;;;;;;10914424;27;20043;-71
2022/07/31 04:34:13;;;;;;;3.60;2.05;;;25.40;58.80;;;;;;10909758;32;20024;-72
2022/07/31 04:40:16;;;;;;;3.03;1.77;;;25.30;59.00;;;;;;10909504;32;20335;-72
2022/07/31 04:46:19;;;;;;;2.80;1.90;;;25.30;58.90;;;;;;10909183;32;20036;-72
2022/07/31 04:52:23;;;;;;;3.47;1.52;;;25.30;58.90;;;;;;10908810;32;20027;-71
2022/07/31 04:58:33;;;;;;;2.85;2.03;;;25.30;58.90;;;;;;10908846;32;20320;-71
2022/07/31 05:04:36;;;;;;;4.10;2.28;;;25.30;58.70;;;;;;10895169;32;20031;-71
2022/07/31 05:17:16;;;;;;;2.25;1.15;;;25.50;58.50;;;;;;10908177;32;20027;-71
2022/07/31 05:23:21;;;;;;;5.12;2.65;;;25.60;58.40;;;;;;10907830;32;20059;-71
2022/07/31 05:29:26;;;;;;;2.42;1.58;;;25.60;58.40;;;;;;10907672;32;20027;-70
2022/07/31 05:35:28;;;;;;;3.17;1.92;;;25.70;58.40;;;;;;10907409;32;20020;-70
2022/07/31 05:41:41;;;;;;;3.15;1.87;;;25.80;58.40;;;;;;10906857;32;20324;-69
2022/07/31 05:47:45;;;;;;;3.47;2.22;;;25.90;58.10;;;;;;10895083;32;20023;-69
2022/07/31 05:54:00;;;;;;;2.72;1.33;;;26.10;58.20;;;;;;10869497;32;20355;-70
2022/07/31 06:00:09;;;;;;;2.65;1.42;;;26.20;58.10;;;;;;10866084;32;20054;-71
2022/07/31 06:06:13;;;;;;;3.83;1.95;;;26.30;57.90;;;;;;10868873;32;20050;-71
2022/07/31 06:12:18;;;;;;;1.45;1.05;;;26.50;57.60;;;;;;10852575;32;20032;-71
2022/07/31 06:18:21;;;;;;;3.12;1.65;;;26.70;57.30;;;;;;10866296;32;20045;-71
2022/07/31 06:24:24;;;;;;;1.87;1.30;;;26.80;57.10;;;;;;10865205;32;20421;-71
2022/07/31 06:30:45;;;;;;;2.62;1.60;;;26.90;56.80;;;;;;10864457;32;20042;-71
2022/07/31 06:36:48;;;;;;;5.62;1.75;;;27.10;56.60;;;;;;10867067;32;20015;-71
2022/07/31 06:42:50;;;;;;;2.37;1.58;;;27.30;56.50;;;;;;10867775;32;20422;-69
2022/07/31 06:49:15;;;;;;;1.40;0.70;;;27.30;56.40;;;;;;10866394;32;20028;-71
2022/07/31 06:55:17;;;;;;;2.22;1.33;;;27.40;56.20;;;;;;10867475;32;20042;-71
2022/07/31 07:01:20;;;;;;;1.98;1.50;;;27.50;56.00;;;;;;10863490;32;20485;-69
2022/07/31 07:07:23;;;;;;;1.87;1.30;;;27.60;55.90;;;;;;10865544;32;20039;-71
2022/07/31 07:13:50;;;;;;;1.43;0.97;;;27.70;55.80;;;;;;10866048;32;20423;-70
2022/07/31 07:19:52;;;;;;;1.35;0.80;;;27.80;55.60;;;;;;10862738;32;20231;-71
2022/07/31 07:25:55;;;;;;;2.08;1.12;;;27.80;55.50;;;;;;10866103;32;20348;-71
2022/07/31 07:31:58;;;;;;;2.28;1.50;;;27.90;55.10;;;;;;10864212;32;20027;-71
2022/07/31 07:38:00;;;;;;;2.47;1.20;;;28.00;54.90;;;;;;10874202;32;20384;-71
2022/07/31 07:44:06;;;;;;;2.00;1.55;;;28.10;54.70;;;;;;10870356;32;20074;-71
2022/07/31 07:50:11;;;;;;;2.62;1.52;;;28.30;54.50;;;;;;10872988;32;20042;-70
2022/07/31 07:56:15;;;;;;;2.12;1.45;;;28.30;54.50;;;;;;10869681;32;20049;-70
2022/07/31 08:02:18;;;;;;;2.08;1.60;;;28.30;54.50;;;;;;10869207;32;20027;-70
2022/07/31 08:08:22;;;;;;;2.25;1.52;;;28.50;54.30;;;;;;10872324;32;20032;-71
2022/07/31 08:14:25;;;;;;;1.62;1.25;;;28.60;54.10;;;;;;10868842;32;20024;-68
2022/07/31 08:20:36;;;;;;;5.37;1.90;;;28.70;53.80;;;;;;10856740;32;20031;-69
2022/07/31 08:33:01;;;;;;;1.15;1.00;;;28.90;53.20;;;;;;10869785;32;20282;-71
2022/07/31 08:39:11;;;;;;;2.37;1.10;;;28.90;52.80;;;;;;10868315;32;20042;-69
2022/07/31 08:45:28;;;;;;;1.12;0.80;;;29.00;52.40;;;;;;10889072;32;20035;-70
2022/07/31 08:52:23;;;;;;;1.83;1.08;;;29.20;52.10;;;;;;10906658;32;20404;-69
2022/07/31 08:58:25;;;;;;;2.58;1.35;;;29.30;51.80;;;;;;10757385;33;20029;-70
2022/07/31 09:04:28;;;;;;;1.83;1.42;;;29.40;50.70;;;;;;10752484;33;20060;-69
2022/07/31 09:10:32;;;;;;;4.00;1.00;;;29.60;50.60;;;;;;10753638;33;20020;-68
2022/07/31 09:16:46;;;;;;;1.12;0.90;;;29.70;50.50;;;;;;10755900;33;20055;-70
2022/07/31 09:23:27;;;;;;;1.90;1.33;;;29.80;49.40;;;;;;10756938;33;20029;-70
2022/07/31 09:29:45;;;;;;;1.85;0.77;;;29.90;49.00;;;;;;10680057;33;20057;-70
2022/07/31 09:35:51;;;;;;;1.90;1.23;;;30.10;48.60;;;;;;10781233;32;20404;-69
2022/07/31 09:41:53;;;;;;;2.40;1.73;;;30.20;48.40;;;;;;10788889;33;20059;-69
2022/07/31 09:48:04;;;;;;;2.17;1.20;;;30.30;47.50;;;;;;10788640;33;20024;-69
2022/07/31 09:54:18;;;;;;;3.00;1.48;;;30.30;46.80;;;;;;10787955;33;20059;-70
2022/07/31 10:00:23;;;;;;;1.75;1.17;;;30.30;46.80;;;;;;10790206;33;20353;-69
2022/07/31 10:06:30;;;;;;;3.03;1.35;;;30.60;46.40;;;;;;10861971;32;20046;-68
2022/07/31 10:12:34;;;;;;;2.17;1.42;;;30.80;45.90;;;;;;10906062;32;20041;-69
2022/07/31 10:18:51;;;;;;;1.80;0.95;;;31.00;44.90;;;;;;10903879;32;20020;-71
2022/07/31 10:24:59;;;;;;;4.43;1.13;;;31.30;44.40;;;;;;10905619;32;20031;-70
2022/07/31 10:31:02;;;;;;;2.90;1.45;;;31.50;43.40;;;;;;10903407;32;20015;-68
2022/07/31 10:37:29;;;;;;;2.20;1.30;;;31.60;43.30;;;;;;10905292;32;20268;-68
2022/07/31 10:44:08;;;;;;;1.20;0.90;;;31.70;42.60;;;;;;10903465;32;20343;-69
2022/07/31 10:50:24;;;;;;;11.40;1.42;;;31.80;42.20;;;;;;10906929;32;20384;-69
2022/07/31 10:56:41;;;;;;;1.80;1.10;;;32.10;40.80;;;;;;10887907;32;20023;-70
2022/07/31 11:02:45;;;;;;;1.42;1.20;;;32.30;40.10;;;;;;10903137;32;20419;-69
2022/07/31 11:08:51;;;;;;;1.27;0.80;;;32.50;39.40;;;;;;10902469;32;20046;-70
2022/07/31 11:14:56;;;;;;;1.65;1.15;;;32.70;38.90;;;;;;10900557;32;20027;-68
2022/07/31 11:21:01;;;;;;;1.12;0.70;;;32.80;37.90;;;;;;10901380;32;20169;-71
2022/07/31 11:27:04;;;;;;;3.53;1.35;;;33.20;38.20;;;;;;10535235;32;12046441;-69
2022/07/31 11:33:07;;;;;;;1.42;1.00;;;33.50;37.20;;;;;;10811354;33;20121;-70
2022/07/31 11:39:11;;;;;;;2.25;1.10;;;33.40;35.80;;;;;;10823899;33;20095;-70
2022/07/31 11:45:15;;;;;;;1.90;1.17;;;33.80;35.90;;;;;;10823061;32;20036;-69
2022/07/31 11:51:18;;;;;;;2.80;0.95;;;34.10;34.50;;;;;;10822781;33;20070;-70
2022/07/31 11:57:20;;;;;;;1.83;1.40;;;34.20;34.60;;;;;;10883718;32;20065;-69
2022/07/31 12:03:31;;;;;;;1.08;0.85;;;34.30;33.30;;;;;;10901696;32;20058;-71
2022/07/31 12:09:43;;;;;;;1.80;0.70;;;34.30;33.60;;;;;;10862071;32;20332;-70
2022/07/31 12:16:17;;;;;;;3.15;1.15;;;34.50;33.80;;;;;;10867126;32;20028;-69
2022/07/31 12:22:19;;;;;;;2.40;0.90;;;34.60;32.90;;;;;;10868428;32;20057;-69
2022/07/31 12:28:27;;;;;;;1.75;0.80;;;34.50;33.10;;;;;;10883717;27;20057;-71
2022/07/31 12:34:33;;;;;;;1.00;0.55;;;34.60;32.50;;;;;;10909528;32;20399;-70
2022/07/31 12:40:36;;;;;;;1.00;0.70;;;34.70;32.20;;;;;;10893247;32;20027;-69
2022/07/31 12:46:38;;;;;;;2.30;1.42;;;34.80;32.20;;;;;;10905241;32;20057;-69
2022/07/31 12:53:07;;;;;;;1.37;0.80;;;34.70;31.70;;;;;;10882297;32;20031;-71
2022/07/31 12:59:09;;;;;;;1.48;1.05;;;34.60;32.00;;;;;;10872480;32;20023;-69
2022/07/31 13:05:12;;;;;;;1.17;0.75;;;34.70;31.80;;;;;;10867543;32;20070;-68
2022/07/31 13:11:14;;;;;;;2.92;1.23;;;34.80;31.90;;;;;;10871434;32;20301;-69
2022/07/31 13:17:16;;;;;;;0.88;0.75;;;34.90;31.80;;;;;;10870827;32;20012;-70
2022/07/31 13:23:20;;;;;;;1.75;0.68;;;35.00;31.60;;;;;;10875085;32;20432;-71
2022/07/31 13:29:22;;;;;;;0.82;0.52;;;35.00;31.50;;;;;;10891143;32;20023;-71
2022/07/31 13:35:25;;;;;;;2.75;1.10;;;35.20;31.60;;;;;;10897794;32;20062;-69
2022/07/31 13:41:56;;;;;;;5.28;1.17;;;35.20;31.00;;;;;;10889670;32;20450;-72
2022/07/31 13:47:59;;;;;;;1.58;0.95;;;35.00;31.10;;;;;;10871917;32;20039;-71
2022/07/31 13:54:01;;;;;;;1.33;0.50;;;35.00;31.60;;;;;;10878765;32;20027;-71
2022/07/31 14:00:04;;;;;;;1.08;0.80;;;35.10;31.50;;;;;;10884161;32;20028;-71
2022/07/31 14:06:06;;;;;;;4.35;1.27;;;35.20;31.30;;;;;;10883112;32;20031;-70
2022/07/31 14:12:08;;;;;;;2.00;1.00;;;35.20;31.10;;;;;;10891985;32;20066;-70
2022/07/31 14:18:12;;;;;;;1.00;0.50;;;35.20;30.90;;;;;;10877357;32;20058;-70
2022/07/31 14:24:14;;;;;;;1.48;0.80;;;35.10;31.00;;;;;;10863932;32;20027;-70
2022/07/31 14:30:16;;;;;;;3.28;1.10;;;35.20;30.90;;;;;;10867929;32;20336;-71
2022/07/31 14:36:18;;;;;;;2.12;0.95;;;35.30;30.90;;;;;;10867985;32;20020;-72
2022/07/31 14:42:20;;;;;;;1.90;1.12;;;35.40;30.80;;;;;;10867654;32;20077;-71
2022/07/31 14:48:22;;;;;;;1.83;1.25;;;35.40;32.60;;;;;;10863120;32;20031;-71
2022/07/31 14:54:24;;;;;;;1.87;1.33;;;35.30;35.40;;;;;;10867401;32;20023;-68
2022/07/31 15:00:27;;;;;;;1.50;0.75;;;35.20;39.40;;;;;;10867360;32;20019;-71
2022/07/31 15:06:29;;;;;;;1.12;0.85;;;35.10;36.80;;;;;;10867095;32;20062;-71
2022/07/31 15:12:31;;;;;;;1.35;0.73;;;35.30;38.40;;;;;;10866759;32;20082;-71
2022/07/31 15:18:34;;;;;;;8.82;2.08;;;35.20;37.80;;;;;;10866841;32;20031;-70
2022/07/31 15:24:36;;;;;;;1.20;0.82;;;35.40;37.50;;;;;;10866815;32;20031;-71
2022/07/31 15:30:38;;;;;;;1.73;0.90;;;35.40;37.70;;;;;;10853501;32;20040;-71
2022/07/31 15:36:40;;;;;;;2.33;1.20;;;35.40;37.80;;;;;;10866770;32;20059;-70
2022/07/31 15:42:45;;;;;;;1.40;0.90;;;35.30;38.20;;;;;;10866538;32;20027;-71
2022/07/31 15:48:49;;;;;;;2.62;1.52;;;35.30;38.00;;;;;;10853362;32;20024;-71
2022/07/31 15:54:51;;;;;;;2.03;0.95;;;35.30;39.00;;;;;;10872464;32;20328;-71
2022/07/31 16:00:54;;;;;;;5.00;1.25;;;35.20;38.80;;;;;;10873560;32;20204;-71
2022/07/31 16:06:56;;;;;;;1.48;0.90;;;35.30;38.20;;;;;;10873295;32;20023;-71
2022/07/31 16:12:58;;;;;;;1.27;0.90;;;35.40;37.90;;;;;;10869004;32;20042;-71
2022/07/31 16:19:01;;;;;;;2.75;1.52;;;35.60;38.00;;;;;;10873000;32;20399;-71
2022/07/31 16:25:05;;;;;;;2.53;1.17;;;35.50;37.70;;;;;;10871768;32;20332;-71
2022/07/31 16:31:07;;;;;;;1.12;0.77;;;35.50;38.20;;;;;;10871391;32;20395;-71
2022/07/31 16:37:10;;;;;;;2.58;1.12;;;35.50;38.20;;;;;;10871330;32;20023;-72
2022/07/31 16:43:12;;;;;;;1.40;0.93;;;35.50;38.30;;;;;;10872141;32;20066;-70
2022/07/31 16:49:14;;;;;;;0.98;0.80;;;35.50;37.60;;;;;;10867788;32;20058;-71
2022/07/31 16:55:16;;;;;;;1.20;0.75;;;35.50;36.70;;;;;;10870861;32;20054;-71
2022/07/31 17:01:19;;;;;;;4.82;1.00;;;35.60;36.20;;;;;;10871405;32;20046;-70
2022/07/31 17:07:21;;;;;;;2.37;1.55;;;35.60;35.30;;;;;;10871142;32;20399;-71
2022/07/31 17:13:23;;;;;;;2.17;1.00;;;35.50;34.70;;;;;;10870935;32;20054;-71
2022/07/31 17:19:27;;;;;;;1.75;1.10;;;35.40;34.10;;;;;;10870873;32;20023;-71
2022/07/31 17:25:29;;;;;;;2.17;1.30;;;35.30;33.90;;;;;;10870679;32;20071;-71
2022/07/31 17:31:32;;;;;;;1.25;0.82;;;35.20;33.70;;;;;;10870499;32;20050;-71
2022/07/31 17:37:34;;;;;;;1.58;1.10;;;35.20;33.80;;;;;;10866161;32;20019;-71
2022/07/31 17:43:37;;;;;;;1.40;0.93;;;35.40;33.40;;;;;;10869998;32;20023;-72
2022/07/31 17:49:40;;;;;;;1.25;0.62;;;35.90;32.40;;;;;;10868868;32;20016;-72
2022/07/31 17:55:42;;;;;;;1.40;0.70;;;36.90;31.30;;;;;;10869738;32;20422;-73
2022/07/31 18:01:44;;;;;;;0.98;0.62;;;38.10;30.20;;;;;;10867716;32;20320;-73
2022/07/31 18:07:47;;;;;;;1.00;0.60;;;38.70;29.70;;;;;;10868019;32;20054;-72
2022/07/31 18:13:50;;;;;;;1.12;0.52;;;38.70;29.70;;;;;;10864901;32;20024;-73
2022/07/31 18:19:52;;;;;;;0.73;0.62;;;38.40;30.00;;;;;;10867856;32;20054;-73
2022/07/31 18:25:59;;;;;;;0.82;0.55;;;37.20;31.50;;;;;;10868558;32;20050;-73
2022/07/31 18:32:01;;;;;;;0.95;0.37;;;35.90;33.00;;;;;;10868409;32;20063;-73
2022/07/31 18:38:03;;;;;;;0.60;0.55;;;35.20;34.00;;;;;;10868125;32;20027;-73
2022/07/31 18:44:05;;;;;;;3.60;1.05;;;34.80;34.60;;;;;;10867935;32;20126;-73
2022/07/31 18:50:09;;;;;;;1.35;0.93;;;34.40;35.20;;;;;;10854554;32;20050;-73
2022/07/31 18:56:11;;;;;;;1.33;0.75;;;34.00;35.70;;;;;;10867638;32;20059;-73
2022/07/31 19:02:13;;;;;;;3.08;0.65;;;33.80;36.20;;;;;;10867478;32;20024;-73
2022/07/31 19:08:15;;;;;;;2.28;0.90;;;33.50;36.80;;;;;;10867395;32;20046;-73
2022/07/31 19:14:17;;;;;;;1.55;0.93;;;33.30;37.10;;;;;;10867193;32;20050;-73
2022/07/31 19:20:19;;;;;;;13.00;1.05;;;33.30;37.40;;;;;;10866703;32;20023;-73
2022/07/31 19:26:22;;;;;;;0.47;0.47;;;33.10;37.80;;;;;;10867791;32;20050;-73
2022/07/31 19:32:24;;;;;;;1.23;0.82;;;32.90;38.30;;;;;;10880770;32;20023;-73
2022/07/31 19:38:28;;;;;;;0.40;0.40;;;32.80;38.70;;;;;;10875063;32;20035;-73
2022/07/31 19:44:30;;;;;;;1.87;0.85;;;32.60;39.00;;;;;;10873938;32;20050;-73
2022/07/31 19:50:32;;;;;;;1.05;0.65;;;32.50;39.40;;;;;;10873835;32;20392;-73
2022/07/31 19:56:35;;;;;;;1.52;0.93;;;32.40;39.60;;;;;;10873632;32;20430;-73
2022/07/31 20:02:38;;;;;;;0.98;0.47;;;32.30;39.90;;;;;;10873293;32;20050;-73
2022/07/31 20:08:40;;;;;;;2.33;0.70;;;32.30;40.20;;;;;;10869718;32;20404;-73
2022/07/31 20:14:43;;;;;;;0.68;0.50;;;32.20;40.70;;;;;;10873127;32;20042;-73
2022/07/31 20:20:45;;;;;;;0.80;0.73;;;32.00;41.00;;;;;;10872973;32;20019;-73
2022/07/31 20:26:47;;;;;;;0.47;0.30;;;32.00;41.30;;;;;;10872611;32;20333;-73
2022/07/31 20:32:51;;;;;;;2.05;0.75;;;31.80;41.60;;;;;;10872860;27;20039;-73
2022/07/31 20:38:56;;;;;;;5.93;0.82;;;31.80;41.90;;;;;;10858807;32;20057;-73
2022/07/31 20:44:58;;;;;;;1.20;0.40;;;31.70;42.10;;;;;;10872091;32;20046;-73
2022/07/31 20:51:02;;;;;;;3.35;1.12;;;31.70;42.40;;;;;;10871707;32;20024;-73
2022/07/31 20:57:05;;;;;;;0.98;0.60;;;31.60;42.60;;;;;;10871745;32;20054;-73
2022/07/31 21:03:07;;;;;;;0.95;0.73;;;31.50;42.80;;;;;;10871343;32;20028;-73
2022/07/31 21:09:09;;;;;;;1.35;0.80;;;31.40;43.00;;;;;;10871206;32;20019;-73
2022/07/31 21:15:12;;;;;;;1.35;0.70;;;31.30;43.30;;;;;;10870986;32;20055;-73
2022/07/31 21:21:14;;;;;;;0.90;0.80;;;31.30;43.90;;;;;;10857780;32;20038;-73
2022/07/31 21:27:17;;;;;;;0.80;0.75;;;31.20;44.60;;;;;;10870569;32;20347;-73
2022/07/31 21:33:21;;;;;;;2.60;0.98;;;31.10;44.80;;;;;;10870525;32;20042;-73
2022/07/31 21:39:24;;;;;;;1.55;0.77;;;31.00;44.90;;;;;;10856973;32;20024;-73
2022/07/31 21:45:27;;;;;;;1.23;0.80;;;31.00;45.10;;;;;;10870011;32;20388;-73
2022/07/31 21:51:29;;;;;;;2.08;1.15;;;30.90;45.50;;;;;;10869265;32;20020;-73
2022/07/31 21:57:33;;;;;;;2.87;1.17;;;30.80;46.30;;;;;;10869595;32;20059;-73
2022/07/31 22:03:35;;;;;;;1.90;1.27;;;30.60;47.70;;;;;;10869438;32;20470;-73
2022/07/31 22:09:39;;;;;;;1.40;0.73;;;30.40;48.40;;;;;;10853303;32;20024;-73
2022/07/31 22:15:41;;;;;;;3.42;1.65;;;30.30;48.90;;;;;;10831616;32;20058;-72
2022/07/31 22:21:51;;;;;;;2.30;1.10;;;30.20;49.90;;;;;;10831635;32;20269;-72
2022/07/31 22:27:56;;;;;;;4.05;1.00;;;29.90;50.50;;;;;;10831398;32;20027;-72
2022/07/31 22:33:58;;;;;;;2.17;1.00;;;29.90;50.50;;;;;;10831211;32;20027;-73
2022/07/31 22:40:00;;;;;;;2.33;1.40;;;30.00;50.60;;;;;;10831043;32;20036;-73
2022/07/31 22:46:04;;;;;;;1.35;1.00;;;30.10;50.30;;;;;;10830861;32;20020;-72
2022/07/31 22:52:06;;;;;;;1.50;1.10;;;30.10;50.40;;;;;;10830696;32;20027;-73
2022/07/31 22:58:10;;;;;;;1.48;0.85;;;30.00;50.60;;;;;;10830487;32;20020;-72
2022/07/31 23:04:11;;;;;;;0.95;0.73;;;30.00;50.60;;;;;;10830252;32;20059;-72
2022/07/31 23:10:16;;;;;;;1.25;0.90;;;30.00;50.80;;;;;;10830380;32;20016;-72
2022/07/31 23:16:19;;;;;;;1.08;0.93;;;29.90;50.70;;;;;;10827348;32;20071;-72
2022/07/31 23:22:22;;;;;;;2.15;1.05;;;29.80;50.70;;;;;;10830072;32;20027;-72
2022/07/31 23:28:23;;;;;;;1.20;0.75;;;29.80;50.90;;;;;;10829851;33;20028;-72
2022/07/31 23:34:25;;;;;;;0.65;0.62;;;29.80;50.80;;;;;;10829800;33;20020;-72
2022/07/31 23:40:27;;;;;;;3.80;0.98;;;29.80;50.80;;;;;;10829786;33;20032;-72
2022/07/31 23:46:29;;;;;;;1.52;1.08;;;29.60;51.00;;;;;;10829799;33;20324;-72
2022/07/31 23:52:31;;;;;;;0.60;0.55;;;29.40;51.10;;;;;;10829628;33;20305;-72
2022/07/31 23:58:33;;;;;;;1.30;0.90;;;29.40;51.20;;;;;;10829500;33;20042;-72
